createdAt,value
2018-11-03T00:00:18.095Z,91.88
2018-11-03T00:01:18.080Z,91.67
2018-11-03T00:02:18.069Z,92.40
2018-11-03T00:03:18.070Z,92.08
2018-11-03T00:04:18.048Z,91.88
2018-11-03T00:05:18.034Z,92.08
2018-11-03T00:06:18.049Z,91.88
2018-11-03T00:07:18.012Z,92.08
2018-11-03T00:08:18.001Z,91.88
2018-11-03T00:09:17.990Z,91.98
2018-11-03T00:10:17.979Z,90.74
2018-11-03T00:11:17.998Z,91.88
2018-11-03T00:12:17.969Z,91.77
2018-11-03T00:13:17.945Z,91.46
2018-11-03T00:14:17.936Z,91.46
2018-11-03T00:15:17.923Z,91.36
2018-11-03T00:16:17.911Z,91.16
2018-11-03T00:17:17.910Z,91.67
2018-11-03T00:18:17.896Z,91.88
2018-11-03T00:19:17.913Z,91.56
2018-11-03T00:20:17.867Z,91.56
2018-11-03T00:21:17.856Z,91.98
2018-11-03T00:22:17.845Z,92.08
2018-11-03T00:23:17.834Z,91.77
2018-11-03T00:24:17.826Z,91.56
2018-11-03T00:25:17.843Z,91.67
2018-11-03T00:26:17.800Z,91.98
2018-11-03T00:27:17.788Z,91.40
2018-11-03T00:28:17.776Z,91.77
2018-11-03T00:29:17.791Z,91.88
2018-11-03T00:30:17.758Z,91.36
2018-11-03T00:31:17.778Z,91.50
2018-11-03T00:32:17.731Z,91.61
2018-11-03T00:33:17.719Z,92.13
2018-11-03T00:34:17.708Z,92.02
2018-11-03T00:35:17.697Z,91.88
2018-11-03T00:36:17.693Z,91.71
2018-11-03T00:37:17.689Z,92.02
2018-11-03T00:38:17.664Z,91.92
2018-11-03T00:39:17.652Z,92.13
2018-11-03T00:40:17.644Z,92.44
2018-11-03T00:41:17.664Z,92.13
2018-11-03T00:42:17.627Z,92.44
2018-11-03T00:43:17.606Z,92.23
2018-11-03T00:44:17.596Z,91.92
2018-11-03T00:45:17.583Z,92.33
2018-11-03T00:46:17.573Z,92.23
2018-11-03T00:47:17.597Z,92.23
2018-11-03T00:48:17.555Z,92.33
2018-11-03T00:49:17.539Z,92.23
2018-11-03T00:50:17.527Z,92.33
2018-11-03T00:51:17.516Z,92.13
2018-11-03T00:52:17.505Z,92.17
2018-11-03T00:53:17.526Z,92.68
2018-11-03T00:54:17.488Z,92.44
2018-11-03T00:55:17.471Z,92.44
2018-11-03T00:56:17.460Z,92.23
2018-11-03T00:57:17.450Z,92.23
2018-11-03T00:58:17.439Z,92.44
2018-11-03T00:59:17.440Z,92.33
2018-11-03T01:00:17.435Z,92.64
2018-11-03T01:01:17.404Z,92.58
2018-11-03T01:02:17.394Z,92.54
2018-11-03T01:03:17.380Z,92.23
2018-11-03T01:04:17.386Z,91.92
2018-11-03T01:05:17.378Z,92.02
2018-11-03T01:06:17.361Z,92.23
2018-11-03T01:07:17.340Z,92.13
2018-11-03T01:08:17.327Z,91.86
2018-11-03T01:09:17.313Z,92.54
2018-11-03T01:10:17.302Z,92.54
2018-11-03T01:11:17.304Z,92.48
2018-11-03T01:12:17.287Z,92.54
2018-11-03T01:13:17.266Z,92.68
2018-11-03T01:14:17.260Z,92.64
2018-11-03T01:15:17.245Z,92.58
2018-11-03T01:16:17.246Z,92.54
2018-11-03T01:17:17.227Z,92.13
2018-11-03T01:18:17.217Z,91.61
2018-11-03T01:19:17.204Z,91.92
2018-11-03T01:20:17.218Z,92.27
2018-11-03T01:21:17.177Z,91.96
2018-11-03T01:22:17.165Z,90.52
2018-11-03T01:23:17.155Z,90.62
2018-11-03T01:24:17.146Z,91.17
2018-11-03T01:25:17.133Z,91.65
2018-11-03T01:26:17.131Z,91.07
2018-11-03T01:27:17.109Z,90.97
2018-11-03T01:28:17.097Z,92.21
2018-11-03T01:29:17.113Z,92.00
2018-11-03T01:30:17.081Z,92.63
2018-11-03T01:31:17.077Z,92.32
2018-11-03T01:32:17.073Z,92.32
2018-11-03T01:33:17.041Z,92.63
2018-11-03T01:34:17.099Z,92.21
2018-11-03T01:35:17.049Z,92.87
2018-11-03T01:36:17.013Z,92.72
2018-11-03T01:37:16.996Z,93.35
2018-11-03T01:38:16.984Z,93.18
2018-11-03T01:39:16.975Z,93.39
2018-11-03T01:40:16.963Z,93.08
2018-11-03T01:41:16.963Z,93.18
2018-11-03T01:42:16.949Z,93.39
2018-11-03T01:43:16.929Z,92.77
2018-11-03T01:44:16.915Z,92.77
2018-11-03T01:45:16.905Z,92.25
2018-11-03T01:46:16.905Z,92.05
2018-11-03T01:47:16.916Z,92.46
2018-11-03T01:48:16.880Z,92.05
2018-11-03T01:49:16.858Z,92.15
2018-11-03T01:50:16.848Z,93.29
2018-11-03T01:51:16.835Z,94.01
2018-11-03T01:52:16.824Z,93.60
2018-11-03T01:53:16.845Z,93.49
2018-11-03T01:54:16.810Z,93.49
2018-11-03T01:55:16.791Z,93.80
2018-11-03T01:56:16.782Z,93.29
2018-11-03T01:57:16.769Z,93.14
2018-11-03T01:58:16.759Z,93.60
2018-11-03T01:59:16.778Z,92.87
2018-11-03T02:00:16.747Z,93.18
2018-11-03T02:01:16.722Z,93.24
2018-11-03T02:02:16.712Z,92.77
2018-11-03T02:03:16.702Z,92.36
2018-11-03T02:04:16.691Z,92.83
2018-11-03T02:05:16.691Z,92.67
2018-11-03T02:06:16.672Z,93.08
2018-11-03T02:07:16.671Z,92.57
2018-11-03T02:08:16.642Z,91.74
2018-11-03T02:09:16.633Z,92.36
2018-11-03T02:10:16.622Z,93.49
2018-11-03T02:11:16.611Z,93.18
2018-11-03T02:12:16.619Z,92.87
2018-11-03T02:13:16.587Z,93.29
2018-11-03T02:14:16.610Z,93.49
2018-11-03T02:15:16.566Z,93.29
2018-11-03T02:16:16.555Z,93.91
2018-11-03T02:17:16.542Z,94.01
2018-11-03T02:18:16.541Z,93.91
2018-11-03T02:19:16.520Z,93.80
2018-11-03T02:20:16.541Z,94.22
2018-11-03T02:21:16.496Z,93.29
2018-11-03T02:22:16.487Z,93.80
2018-11-03T02:23:16.475Z,93.60
2018-11-03T02:24:16.468Z,94.53
2018-11-03T02:25:16.460Z,93.91
2018-11-03T02:26:16.473Z,93.45
2018-11-03T02:27:16.430Z,93.39
2018-11-03T02:28:16.416Z,93.76
2018-11-03T02:29:16.405Z,93.39
2018-11-03T02:30:16.406Z,93.60
2018-11-03T02:31:16.386Z,93.39
2018-11-03T02:32:16.407Z,93.35
2018-11-03T02:33:16.360Z,92.67
2018-11-03T02:34:16.352Z,93.24
2018-11-03T02:35:16.340Z,93.45
2018-11-03T02:36:16.336Z,92.93
2018-11-03T02:37:16.348Z,93.35
2018-11-03T02:38:16.342Z,93.18
2018-11-03T02:39:16.296Z,93.55
2018-11-03T02:40:16.283Z,93.39
2018-11-03T02:41:16.270Z,93.49
2018-11-03T02:42:16.267Z,92.83
2018-11-03T02:43:16.253Z,92.77
2018-11-03T02:44:16.312Z,92.77
2018-11-03T02:45:16.232Z,92.77
2018-11-03T02:46:16.219Z,93.08
2018-11-03T02:47:16.203Z,93.80
2018-11-03T02:48:16.200Z,93.60
2018-11-03T02:49:16.181Z,93.70
2018-11-03T02:50:16.190Z,93.18
2018-11-03T02:51:16.159Z,94.01
2018-11-03T02:52:16.146Z,93.80
2018-11-03T02:53:16.135Z,93.18
2018-11-03T02:54:16.131Z,92.97
2018-11-03T02:55:16.114Z,93.29
2018-11-03T02:56:16.114Z,92.87
2018-11-03T02:57:16.092Z,93.39
2018-11-03T02:58:16.081Z,92.97
2018-11-03T02:59:16.066Z,93.39
2018-11-03T03:00:16.065Z,93.91
2018-11-03T03:01:16.060Z,93.85
2018-11-03T03:02:16.036Z,93.70
2018-11-03T03:03:16.025Z,93.64
2018-11-03T03:04:16.012Z,93.54
2018-11-03T03:05:16.002Z,93.95
2018-11-03T03:06:16.010Z,93.95
2018-11-03T03:07:15.979Z,94.06
2018-11-03T03:08:15.971Z,94.37
2018-11-03T03:09:15.955Z,94.26
2018-11-03T03:10:15.946Z,94.06
2018-11-03T03:11:15.966Z,95.25
2018-11-03T03:12:15.930Z,94.94
2018-11-03T03:13:15.913Z,94.84
2018-11-03T03:14:15.900Z,94.53
2018-11-03T03:15:15.889Z,95.04
2018-11-03T03:16:15.878Z,94.53
2018-11-03T03:17:15.887Z,95.25
2018-11-03T03:18:15.864Z,94.53
2018-11-03T03:19:15.848Z,94.32
2018-11-03T03:20:15.832Z,94.53
2018-11-03T03:21:15.822Z,94.38
2018-11-03T03:22:15.810Z,94.18
2018-11-03T03:23:15.834Z,94.48
2018-11-03T03:24:15.798Z,93.97
2018-11-03T03:25:15.778Z,93.97
2018-11-03T03:26:15.785Z,94.18
2018-11-03T03:27:15.755Z,93.76
2018-11-03T03:28:15.743Z,93.87
2018-11-03T03:29:15.824Z,94.13
2018-11-03T03:30:15.728Z,93.66
2018-11-03T03:31:15.708Z,93.35
2018-11-03T03:32:15.697Z,93.45
2018-11-03T03:33:15.687Z,93.45
2018-11-03T03:34:15.676Z,93.55
2018-11-03T03:35:15.677Z,92.83
2018-11-03T03:36:15.658Z,93.14
2018-11-03T03:37:15.656Z,93.45
2018-11-03T03:38:15.631Z,93.24
2018-11-03T03:39:15.619Z,93.49
2018-11-03T03:40:15.622Z,92.97
2018-11-03T03:41:15.661Z,93.55
2018-11-03T03:42:15.594Z,93.39
2018-11-03T03:43:15.576Z,93.39
2018-11-03T03:44:15.564Z,92.57
2018-11-03T03:45:15.565Z,93.39
2018-11-03T03:46:15.554Z,93.91
2018-11-03T03:47:15.529Z,93.60
2018-11-03T03:48:15.525Z,93.80
2018-11-03T03:49:15.512Z,93.29
2018-11-03T03:50:15.499Z,93.39
2018-11-03T03:51:15.499Z,93.70
2018-11-03T03:52:15.472Z,93.80
2018-11-03T03:53:15.477Z,94.43
2018-11-03T03:54:15.464Z,94.43
2018-11-03T03:55:15.440Z,94.43
2018-11-03T03:56:15.432Z,93.08
2018-11-03T03:57:15.449Z,93.29
2018-11-03T03:58:15.409Z,92.91
2018-11-03T03:59:15.397Z,92.61
2018-11-03T04:00:15.393Z,92.71
2018-11-03T04:01:15.375Z,92.50
2018-11-03T04:02:15.365Z,92.09
2018-11-03T04:03:15.397Z,92.24
2018-11-03T04:04:15.340Z,91.82
2018-11-03T04:05:15.329Z,92.13
2018-11-03T04:06:15.325Z,92.03
2018-11-03T04:07:15.308Z,92.80
2018-11-03T04:08:15.300Z,93.58
2018-11-03T04:09:15.296Z,94.82
2018-11-03T04:10:15.274Z,94.31
2018-11-03T04:11:15.263Z,94.31
2018-11-03T04:12:15.259Z,93.93
2018-11-03T04:13:15.273Z,93.62
2018-11-03T04:14:15.235Z,93.93
2018-11-03T04:15:15.218Z,94.45
2018-11-03T04:16:15.210Z,94.56
2018-11-03T04:17:15.195Z,94.24
2018-11-03T04:18:15.218Z,94.18
2018-11-03T04:19:15.187Z,94.08
2018-11-03T04:20:15.164Z,94.18
2018-11-03T04:21:15.155Z,93.98
2018-11-03T04:22:15.146Z,93.87
2018-11-03T04:23:15.131Z,94.08
2018-11-03T04:24:15.161Z,92.84
2018-11-03T04:25:15.108Z,93.71
2018-11-03T04:26:15.100Z,93.91
2018-11-03T04:27:15.085Z,93.60
2018-11-03T04:28:15.075Z,93.81
2018-11-03T04:29:15.062Z,93.44
2018-11-03T04:30:15.075Z,93.81
2018-11-03T04:31:15.049Z,93.02
2018-11-03T04:32:15.062Z,93.02
2018-11-03T04:33:15.018Z,91.99
2018-11-03T04:34:15.005Z,92.76
2018-11-03T04:35:14.997Z,92.55
2018-11-03T04:36:14.992Z,91.93
2018-11-03T04:37:14.974Z,91.52
2018-11-03T04:38:14.974Z,91.45
2018-11-03T04:39:14.953Z,91.45
2018-11-03T04:40:14.941Z,91.35
2018-11-03T04:41:14.928Z,91.70
2018-11-03T04:42:14.925Z,91.03
2018-11-03T04:43:14.939Z,91.18
2018-11-03T04:44:14.896Z,92.43
2018-11-03T04:45:14.889Z,92.11
2018-11-03T04:46:14.875Z,92.32
2018-11-03T04:47:14.863Z,92.63
2018-11-03T04:48:14.856Z,93.16
2018-11-03T04:49:14.854Z,92.63
2018-11-03T04:50:14.830Z,92.84
2018-11-03T04:51:14.818Z,93.20
2018-11-03T04:52:14.807Z,94.34
2018-11-03T04:53:14.795Z,93.93
2018-11-03T04:54:14.830Z,93.51
2018-11-03T04:55:14.851Z,92.99
2018-11-03T04:56:14.763Z,93.20
2018-11-03T04:57:14.754Z,93.82
2018-11-03T04:58:14.742Z,93.62
2018-11-03T04:59:14.732Z,93.93
2018-11-03T05:00:14.756Z,93.62
2018-11-03T05:01:14.706Z,92.72
2018-11-03T05:02:14.697Z,93.66
2018-11-03T05:03:14.730Z,94.18
2018-11-03T05:04:14.678Z,94.49
2018-11-03T05:05:14.664Z,93.97
2018-11-03T05:06:14.677Z,93.76
2018-11-03T05:07:14.641Z,94.28
2018-11-03T05:08:14.630Z,93.87
2018-11-03T05:09:14.621Z,93.24
2018-11-03T05:10:14.663Z,93.14
2018-11-03T05:11:14.595Z,93.03
2018-11-03T05:12:14.620Z,92.76
2018-11-03T05:13:14.572Z,92.86
2018-11-03T05:14:14.565Z,94.01
2018-11-03T05:15:14.554Z,93.18
2018-11-03T05:16:14.542Z,92.66
2018-11-03T05:17:14.530Z,92.76
2018-11-03T05:18:14.537Z,92.45
2018-11-03T05:19:14.506Z,92.76
2018-11-03T05:20:14.495Z,92.29
2018-11-03T05:21:14.545Z,92.60
2018-11-03T05:22:14.513Z,92.49
2018-11-03T05:23:14.462Z,92.70
2018-11-03T05:24:14.458Z,92.70
2018-11-03T05:25:14.441Z,92.70
2018-11-03T05:26:14.429Z,92.49
2018-11-03T05:27:14.419Z,92.74
2018-11-03T05:28:14.483Z,92.85
2018-11-03T05:29:14.399Z,92.54
2018-11-03T05:30:14.390Z,92.12
2018-11-03T05:31:14.492Z,92.85
2018-11-03T05:32:14.365Z,93.05
2018-11-03T05:33:14.353Z,92.85
2018-11-03T05:34:14.375Z,92.54
2018-11-03T05:35:14.328Z,93.16
2018-11-03T05:36:14.331Z,94.31
2018-11-03T05:37:14.308Z,93.37
2018-11-03T05:38:14.296Z,93.16
2018-11-03T05:39:14.286Z,93.68
2018-11-03T05:40:14.285Z,92.64
2018-11-03T05:41:14.295Z,91.50
2018-11-03T05:42:14.260Z,91.02
2018-11-03T05:43:14.240Z,89.66
2018-11-03T05:44:14.229Z,89.91
2018-11-03T05:45:14.219Z,89.91
2018-11-03T05:46:14.260Z,91.06
2018-11-03T05:47:14.229Z,92.72
2018-11-03T05:48:14.191Z,92.31
2018-11-03T05:49:14.174Z,91.83
2018-11-03T05:50:14.162Z,92.03
2018-11-03T05:51:14.151Z,91.52
2018-11-03T05:52:14.140Z,92.03
2018-11-03T05:53:14.169Z,91.72
2018-11-03T05:54:14.125Z,91.31
2018-11-03T05:55:14.105Z,91.72
2018-11-03T05:56:14.096Z,93.40
2018-11-03T05:57:14.085Z,93.71
2018-11-03T05:58:14.074Z,93.71
2018-11-03T05:59:14.075Z,92.77
2018-11-03T06:00:14.058Z,92.97
2018-11-03T06:01:14.038Z,92.77
2018-11-03T06:02:14.029Z,91.93
2018-11-03T06:03:14.032Z,91.62
2018-11-03T06:04:14.036Z,90.93
2018-11-03T06:05:13.994Z,91.56
2018-11-03T06:06:13.994Z,91.66
2018-11-03T06:07:13.973Z,92.08
2018-11-03T06:08:13.964Z,92.50
2018-11-03T06:09:14.031Z,92.40
2018-11-03T06:10:13.955Z,92.71
2018-11-03T06:11:13.929Z,92.81
2018-11-03T06:12:13.929Z,93.02
2018-11-03T06:13:13.909Z,93.40
2018-11-03T06:14:13.900Z,92.66
2018-11-03T06:15:13.931Z,91.87
2018-11-03T06:16:13.874Z,90.62
2018-11-03T06:17:13.861Z,89.72
2018-11-03T06:18:13.860Z,89.47
2018-11-03T06:19:13.838Z,89.68
2018-11-03T06:20:13.851Z,90.56
2018-11-03T06:21:13.828Z,90.77
2018-11-03T06:22:13.869Z,91.18
2018-11-03T06:23:14.037Z,91.81
2018-11-03T06:24:13.788Z,91.08
2018-11-03T06:25:13.770Z,92.22
2018-11-03T06:26:13.775Z,91.81
2018-11-03T06:27:13.751Z,91.60
2018-11-03T06:28:13.909Z,92.33
2018-11-03T06:29:13.730Z,92.02
2018-11-03T06:30:13.722Z,92.02
2018-11-03T06:31:13.753Z,91.39
2018-11-03T06:32:13.692Z,91.85
2018-11-03T06:33:13.684Z,91.91
2018-11-03T06:34:13.703Z,91.18
2018-11-03T06:35:13.682Z,89.93
2018-11-03T06:36:13.661Z,89.97
2018-11-03T06:37:13.671Z,91.29
2018-11-03T06:38:13.628Z,91.22
2018-11-03T06:39:13.615Z,91.75
2018-11-03T06:40:13.604Z,91.12
2018-11-03T06:41:13.595Z,90.60
2018-11-03T06:42:13.590Z,91.12
2018-11-03T06:43:13.618Z,91.85
2018-11-03T06:44:13.560Z,92.16
2018-11-03T06:45:13.553Z,92.06
2018-11-03T06:46:13.543Z,92.27
2018-11-03T06:47:13.590Z,91.75
2018-11-03T06:48:13.524Z,92.06
2018-11-03T06:49:13.523Z,92.06
2018-11-03T06:50:13.495Z,91.75
2018-11-03T06:51:13.484Z,91.91
2018-11-03T06:52:13.551Z,92.96
2018-11-03T06:53:13.463Z,92.47
2018-11-03T06:54:13.494Z,93.27
2018-11-03T06:55:13.442Z,93.37
2018-11-03T06:56:13.427Z,94.31
2018-11-03T06:57:13.424Z,94.00
2018-11-03T06:58:13.406Z,93.59
2018-11-03T06:59:13.395Z,94.00
2018-11-03T07:00:13.402Z,94.48
2018-11-03T07:01:13.468Z,94.84
2018-11-03T07:02:13.399Z,94.63
2018-11-03T07:03:13.350Z,94.27
2018-11-03T07:04:13.341Z,95.21
2018-11-03T07:05:13.436Z,94.06
2018-11-03T07:06:13.318Z,93.91
2018-11-03T07:07:13.317Z,93.81
2018-11-03T07:08:13.329Z,93.40
2018-11-03T07:09:13.283Z,92.71
2018-11-03T07:10:13.276Z,93.23
2018-11-03T07:11:13.263Z,94.37
2018-11-03T07:12:13.364Z,93.81
2018-11-03T07:13:13.284Z,93.18
2018-11-03T07:14:13.271Z,92.77
2018-11-03T07:15:13.216Z,93.08
2018-11-03T07:16:13.206Z,92.97
2018-11-03T07:17:13.196Z,92.03
2018-11-03T07:18:13.184Z,91.93
2018-11-03T07:19:13.181Z,91.41
2018-11-03T07:20:13.175Z,91.20
2018-11-03T07:21:13.157Z,91.97
2018-11-03T07:22:13.141Z,92.35
2018-11-03T07:23:13.128Z,93.08
2018-11-03T07:24:13.116Z,92.87
2018-11-03T07:25:13.148Z,92.97
2018-11-03T07:26:13.095Z,92.72
2018-11-03T07:27:13.082Z,92.56
2018-11-03T07:28:13.072Z,91.83
2018-11-03T07:29:13.065Z,92.41
2018-11-03T07:30:13.049Z,93.66
2018-11-03T07:31:13.083Z,94.81
2018-11-03T07:32:13.027Z,95.02
2018-11-03T07:33:13.020Z,94.35
2018-11-03T07:34:13.005Z,94.56
2018-11-03T07:35:12.995Z,94.35
2018-11-03T07:36:12.982Z,93.93
2018-11-03T07:37:12.995Z,94.20
2018-11-03T07:38:12.993Z,94.10
2018-11-03T07:39:12.950Z,94.41
2018-11-03T07:40:12.941Z,93.89
2018-11-03T07:41:12.955Z,94.10
2018-11-03T07:42:12.917Z,93.89
2018-11-03T07:43:12.913Z,94.20
2018-11-03T07:44:12.931Z,93.68
2018-11-03T07:45:12.883Z,94.06
2018-11-03T07:46:12.884Z,93.54
2018-11-03T07:47:12.862Z,93.95
2018-11-03T07:48:12.951Z,93.85
2018-11-03T07:49:13.049Z,93.74
2018-11-03T07:50:12.847Z,94.06
2018-11-03T07:51:12.816Z,93.43
2018-11-03T07:52:12.805Z,92.91
2018-11-03T07:53:12.795Z,93.07
2018-11-03T07:54:12.782Z,93.29
2018-11-03T07:55:12.780Z,93.29
2018-11-03T07:56:12.774Z,93.29
2018-11-03T07:57:12.749Z,92.86
2018-11-03T07:58:12.739Z,92.76
2018-11-03T07:59:12.729Z,93.07
2018-11-03T08:00:12.722Z,93.39
2018-11-03T08:01:12.723Z,94.01
2018-11-03T08:02:12.694Z,94.49
2018-11-03T08:03:12.682Z,94.70
2018-11-03T08:04:12.671Z,94.70
2018-11-03T08:05:12.659Z,94.70
2018-11-03T08:06:12.682Z,95.01
2018-11-03T08:07:12.647Z,94.45
2018-11-03T08:08:12.626Z,94.45
2018-11-03T08:09:12.796Z,94.65
2018-11-03T08:10:12.605Z,95.48
2018-11-03T08:11:12.595Z,95.34
2018-11-03T08:12:12.594Z,95.65
2018-11-03T08:13:12.576Z,95.03
2018-11-03T08:14:12.566Z,96.06
2018-11-03T08:15:12.567Z,96.02
2018-11-03T08:16:12.572Z,95.61
2018-11-03T08:17:12.525Z,96.02
2018-11-03T08:18:12.514Z,95.92
2018-11-03T08:19:12.515Z,95.81
2018-11-03T08:20:12.492Z,96.39
2018-11-03T08:21:12.482Z,96.50
2018-11-03T08:22:12.483Z,96.34
2018-11-03T08:23:12.465Z,96.14
2018-11-03T08:24:12.449Z,96.55
2018-11-03T08:25:12.442Z,96.34
2018-11-03T08:26:12.425Z,95.83
2018-11-03T08:27:12.425Z,95.93
2018-11-03T08:28:12.403Z,95.47
2018-11-03T08:29:12.423Z,95.68
2018-11-03T08:30:12.380Z,95.72
2018-11-03T08:31:12.371Z,96.09
2018-11-03T08:32:12.357Z,95.37
2018-11-03T08:33:12.347Z,95.74
2018-11-03T08:34:12.337Z,95.01
2018-11-03T08:35:12.340Z,95.01
2018-11-03T08:36:12.316Z,95.01
2018-11-03T08:37:12.312Z,95.39
2018-11-03T08:38:12.291Z,95.49
2018-11-03T08:39:12.293Z,94.97
2018-11-03T08:40:12.301Z,94.97
2018-11-03T08:41:12.258Z,94.51
2018-11-03T08:42:12.250Z,94.51
2018-11-03T08:43:12.263Z,94.10
2018-11-03T08:44:12.224Z,94.16
2018-11-03T08:45:12.214Z,93.02
2018-11-03T08:46:12.216Z,93.43
2018-11-03T08:47:12.203Z,93.64
2018-11-03T08:48:12.234Z,93.74
2018-11-03T08:49:12.176Z,94.06
2018-11-03T08:50:12.158Z,92.91
2018-11-03T08:51:12.194Z,92.71
2018-11-03T08:52:12.169Z,92.57
2018-11-03T08:53:12.123Z,92.57
2018-11-03T08:54:12.113Z,92.25
2018-11-03T08:55:12.135Z,91.84
2018-11-03T08:56:12.091Z,91.94
2018-11-03T08:57:12.081Z,91.17
2018-11-03T08:58:12.098Z,90.87
2018-11-03T08:59:12.056Z,90.87
2018-11-03T09:00:12.158Z,90.14
2018-11-03T09:01:12.040Z,89.94
2018-11-03T09:02:12.024Z,90.56
2018-11-03T09:03:12.013Z,90.72
2018-11-03T09:04:12.031Z,90.56
2018-11-03T09:05:11.989Z,90.93
2018-11-03T09:06:11.979Z,91.13
2018-11-03T09:07:12.064Z,91.13
2018-11-03T09:08:11.956Z,90.78
2018-11-03T09:09:11.950Z,90.06
2018-11-03T09:10:11.971Z,88.82
2018-11-03T09:11:11.920Z,89.34
2018-11-03T09:12:11.912Z,89.19
2018-11-03T09:13:11.906Z,87.65
2018-11-03T09:14:11.887Z,87.65
2018-11-03T09:15:11.992Z,86.71
2018-11-03T09:16:11.909Z,86.92
2018-11-03T09:17:11.854Z,85.99
2018-11-03T09:18:11.842Z,85.17
2018-11-03T09:19:11.838Z,85.37
2018-11-03T09:20:11.818Z,84.09
2018-11-03T09:21:11.808Z,84.51
2018-11-03T09:22:11.830Z,85.95
2018-11-03T09:23:11.785Z,81.93
2018-11-03T09:24:11.777Z,81.93
2018-11-03T09:25:11.771Z,81.62
2018-11-03T09:26:11.756Z,81.99
2018-11-03T09:27:11.743Z,80.96
2018-11-03T09:28:11.744Z,82.10
2018-11-03T09:29:11.718Z,81.96
2018-11-03T09:30:11.707Z,83.85
2018-11-03T09:31:11.702Z,81.44
2018-11-03T09:32:11.683Z,80.04
2018-11-03T09:33:11.687Z,81.34
2018-11-03T09:34:11.696Z,80.62
2018-11-03T09:35:11.649Z,80.62
2018-11-03T09:36:11.638Z,81.96
2018-11-03T09:37:11.636Z,80.72
2018-11-03T09:38:11.616Z,80.41
2018-11-03T09:39:11.656Z,81.20
2018-11-03T09:40:11.611Z,81.51
2018-11-03T09:41:11.582Z,80.99
2018-11-03T09:42:11.573Z,80.37
2018-11-03T09:43:11.643Z,81.20
2018-11-03T09:44:11.549Z,80.47
2018-11-03T09:45:11.682Z,80.68
2018-11-03T09:46:11.526Z,81.92
2018-11-03T09:47:11.514Z,82.23
2018-11-03T09:48:11.505Z,82.91
2018-11-03T09:49:11.504Z,82.54
2018-11-03T09:50:11.480Z,81.16
2018-11-03T09:51:11.542Z,79.44
2018-11-03T09:52:11.464Z,80.54
2018-11-03T09:53:11.449Z,79.00
2018-11-03T09:54:11.438Z,78.48
2018-11-03T09:55:11.432Z,79.10
2018-11-03T09:56:11.414Z,78.58
2018-11-03T09:57:11.436Z,78.79
2018-11-03T09:58:11.392Z,79.51
2018-11-03T09:59:11.381Z,78.38
2018-11-03T10:00:11.370Z,79.51
2018-11-03T10:01:11.365Z,79.30
2018-11-03T10:02:11.346Z,79.82
2018-11-03T10:03:11.366Z,78.79
2018-11-03T10:04:11.326Z,76.70
2018-11-03T10:05:11.318Z,75.49
2018-11-03T10:06:11.310Z,75.77
2018-11-03T10:07:11.296Z,77.62
2018-11-03T10:08:11.280Z,78.65
2018-11-03T10:09:11.301Z,78.44
2018-11-03T10:10:11.256Z,78.96
2018-11-03T10:11:11.245Z,77.83
2018-11-03T10:12:11.234Z,78.34
2018-11-03T10:13:11.227Z,78.00
2018-11-03T10:14:11.231Z,78.44
2018-11-03T10:15:11.213Z,78.44
2018-11-03T10:16:11.191Z,78.72
2018-11-03T10:17:11.179Z,79.03
2018-11-03T10:18:11.172Z,78.61
2018-11-03T10:19:11.161Z,77.38
2018-11-03T10:20:11.155Z,78.00
2018-11-03T10:21:11.135Z,78.00
2018-11-03T10:22:11.223Z,77.79
2018-11-03T10:23:11.125Z,76.97
2018-11-03T10:24:11.099Z,77.58
2018-11-03T10:25:11.122Z,75.94
2018-11-03T10:26:11.077Z,75.52
2018-11-03T10:27:11.067Z,75.52
2018-11-03T10:28:11.056Z,76.56
2018-11-03T10:29:11.042Z,75.63
2018-11-03T10:30:11.032Z,76.56
2018-11-03T10:31:11.101Z,75.52
2018-11-03T10:32:11.007Z,76.35
2018-11-03T10:33:10.998Z,75.63
2018-11-03T10:34:10.987Z,76.79
2018-11-03T10:35:10.976Z,75.84
2018-11-03T10:36:10.966Z,75.42
2018-11-03T10:37:10.993Z,76.25
2018-11-03T10:38:10.942Z,76.56
2018-11-03T10:39:10.930Z,77.58
2018-11-03T10:40:10.918Z,76.45
2018-11-03T10:41:10.907Z,75.42
2018-11-03T10:42:10.928Z,75.32
2018-11-03T10:43:10.905Z,75.15
2018-11-03T10:44:10.876Z,75.63
2018-11-03T10:45:10.861Z,76.56
2018-11-03T10:46:10.911Z,75.32
2018-11-03T10:47:10.839Z,74.40
2018-11-03T10:48:10.864Z,74.60
2018-11-03T10:49:10.823Z,73.78
2018-11-03T10:50:10.808Z,75.42
2018-11-03T10:51:10.795Z,74.91
2018-11-03T10:52:10.786Z,75.63
2018-11-03T10:53:10.773Z,77.89
2018-11-03T10:54:10.797Z,75.84
2018-11-03T10:55:10.756Z,75.15
2018-11-03T10:56:10.739Z,75.94
2018-11-03T10:57:10.727Z,75.63
2018-11-03T10:58:10.717Z,75.63
2018-11-03T10:59:10.704Z,75.42
2018-11-03T11:00:10.711Z,75.63
2018-11-03T11:01:10.690Z,76.35
2018-11-03T11:02:10.712Z,75.94
2018-11-03T11:03:10.661Z,75.59
2018-11-03T11:04:10.647Z,75.52
2018-11-03T11:05:10.637Z,75.08
2018-11-03T11:06:10.627Z,75.18
2018-11-03T11:07:10.613Z,75.70
2018-11-03T11:08:10.643Z,75.18
2018-11-03T11:09:10.594Z,74.15
2018-11-03T11:10:10.581Z,74.15
2018-11-03T11:11:10.569Z,75.39
2018-11-03T11:12:10.557Z,75.90
2018-11-03T11:13:10.548Z,75.80
2018-11-03T11:14:10.622Z,76.42
2018-11-03T11:15:10.524Z,75.80
2018-11-03T11:16:10.556Z,76.83
2018-11-03T11:17:10.501Z,74.36
2018-11-03T11:18:10.502Z,73.95
2018-11-03T11:19:10.491Z,75.18
2018-11-03T11:20:10.472Z,75.18
2018-11-03T11:21:10.458Z,75.25
2018-11-03T11:22:10.445Z,74.36
2018-11-03T11:23:10.476Z,72.68
2018-11-03T11:24:10.575Z,72.38
2018-11-03T11:25:10.606Z,73.40
2018-11-03T11:26:10.405Z,72.68
2018-11-03T11:27:10.389Z,73.61
2018-11-03T11:28:10.379Z,73.09
2018-11-03T11:29:10.378Z,74.02
2018-11-03T11:30:10.417Z,75.46
2018-11-03T11:31:10.381Z,73.61
2018-11-03T11:32:10.336Z,70.94
2018-11-03T11:33:10.327Z,71.41
2018-11-03T11:34:10.310Z,70.49
2018-11-03T11:35:10.298Z,71.66
2018-11-03T11:36:10.300Z,69.90
2018-11-03T11:37:10.278Z,70.79
2018-11-03T11:38:10.266Z,70.90
2018-11-03T11:39:10.261Z,70.79
2018-11-03T11:40:10.245Z,71.72
2018-11-03T11:41:10.275Z,72.47
2018-11-03T11:42:10.220Z,71.96
2018-11-03T11:43:10.431Z,73.06
2018-11-03T11:44:10.226Z,73.81
2018-11-03T11:45:10.192Z,71.75
2018-11-03T11:46:10.175Z,71.66
2018-11-03T11:47:10.200Z,71.86
2018-11-03T11:48:10.170Z,72.47
2018-11-03T11:49:10.142Z,73.19
2018-11-03T11:50:10.131Z,70.83
2018-11-03T11:51:10.125Z,71.04
2018-11-03T11:52:10.108Z,70.83
2018-11-03T11:53:10.108Z,71.86
2018-11-03T11:54:10.086Z,71.86
2018-11-03T11:55:10.094Z,72.99
2018-11-03T11:56:10.076Z,72.68
2018-11-03T11:57:10.059Z,70.21
2018-11-03T11:58:10.041Z,71.04
2018-11-03T11:59:10.042Z,72.38
2018-11-03T12:00:10.017Z,69.80
2018-11-03T12:01:10.007Z,69.39
2018-11-03T12:02:10.052Z,71.34
2018-11-03T12:03:09.990Z,71.24
2018-11-03T12:04:09.983Z,72.78
2018-11-03T12:05:09.974Z,71.45
2018-11-03T12:06:09.949Z,69.98
2018-11-03T12:07:09.938Z,70.18
2018-11-03T12:08:09.928Z,70.08
2018-11-03T12:09:09.942Z,69.98
2018-11-03T12:10:09.973Z,69.36
2018-11-03T12:11:09.892Z,70.70
2018-11-03T12:12:09.881Z,70.79
2018-11-03T12:13:09.872Z,71.11
2018-11-03T12:14:09.862Z,70.59
2018-11-03T12:15:09.869Z,71.72
2018-11-03T12:16:09.917Z,69.77
2018-11-03T12:17:09.825Z,69.12
2018-11-03T12:18:09.813Z,70.08
2018-11-03T12:19:09.802Z,71.51
2018-11-03T12:20:09.824Z,72.00
2018-11-03T12:21:09.791Z,69.67
2018-11-03T12:22:09.768Z,68.51
2018-11-03T12:23:09.759Z,68.61
2018-11-03T12:24:09.746Z,68.71
2018-11-03T12:25:09.735Z,69.23
2018-11-03T12:26:09.738Z,70.76
2018-11-03T12:27:09.718Z,70.08
2018-11-03T12:28:09.701Z,68.10
2018-11-03T12:29:09.690Z,69.23
2018-11-03T12:30:09.720Z,70.66
2018-11-03T12:31:09.667Z,72.10
2018-11-03T12:32:09.656Z,70.76
2018-11-03T12:33:09.648Z,70.46
2018-11-03T12:34:09.632Z,70.66
2018-11-03T12:35:09.622Z,70.36
2018-11-03T12:36:09.641Z,71.62
2018-11-03T12:37:09.602Z,69.67
2018-11-03T12:38:09.588Z,69.84
2018-11-03T12:39:09.582Z,69.43
2018-11-03T12:40:09.566Z,70.04
2018-11-03T12:41:09.561Z,70.56
2018-11-03T12:42:09.575Z,69.15
2018-11-03T12:43:09.531Z,69.77
2018-11-03T12:44:09.523Z,71.48
2018-11-03T12:45:09.539Z,69.36
2018-11-03T12:46:09.506Z,69.32
2018-11-03T12:47:09.487Z,69.12
2018-11-03T12:48:09.527Z,69.74
2018-11-03T12:49:09.464Z,70.66
2018-11-03T12:50:09.452Z,70.66
2018-11-03T12:51:09.445Z,70.66
2018-11-03T12:52:09.431Z,70.84